This is the latest recevied weather packets stored in our database for station/object SV4JYD-14. If no packets are shown the sender has not sent any weather packets the latest 10 day(s).
| Time | Temp. | Humidity | Pressure | Rain* | Wind** | Luminosity | Snow |
|---|---|---|---|---|---|---|---|
| 1777265739 | 16.67° C | 66% | 1017 hPa | 0 mm | - | - | - |
| 1777264839 | 16.11° C | 67% | 1017 hPa | 0 mm | - | - | - |
| 1777263939 | 15.56° C | 71% | 1017 hPa | 0 mm | - | - | - |
| 1777263039 | 13.89° C | 77% | 1017 hPa | 0 mm | - | - | - |
| 1777262138 | 13.33° C | 80% | 1017 hPa | 0 mm | - | - | - |
| 1777261238 | 13.33° C | 80% | 1017 hPa | 0 mm | - | - | - |
| 1777260338 | 13.33° C | 80% | 1017 hPa | 0 mm | - | - | - |
| 1777259438 | 13.89° C | 79% | 1017 hPa | 0 mm | - | - | - |
| 1777258538 | 13.89° C | 79% | 1016 hPa | 0 mm | - | - | - |
| 1777257637 | 13.89° C | 79% | 1016 hPa | 0 mm | - | - | - |
| 1777256737 | 13.33° C | 77% | 1017 hPa | 0 mm | - | - | - |
| 1777255837 | 13.33° C | 77% | 1017 hPa | 0 mm | - | - | - |
| 1777254937 | 13.89° C | 75% | 1016 hPa | 0 mm | - | - | - |
| 1777254036 | 13.89° C | 74% | 1016 hPa | 0 mm | - | - | - |
| 1777253136 | 13.89° C | 72% | 1016 hPa | 0 mm | - | - | - |
| 1777252236 | 13.89° C | 69% | 1016 hPa | 0 mm | - | - | - |
| 1777251335 | 13.89° C | 66% | 1016 hPa | 0 mm | - | - | - |
| 1777250435 | 13.89° C | 64% | 1016 hPa | 0 mm | - | - | - |
| 1777249535 | 13.89° C | 62% | 1016 hPa | 0 mm | - | - | - |
| 1777248635 | 14.44° C | 61% | 1016 hPa | 0 mm | - | - | - |
| 1777247735 | 14.44° C | 60% | 1016 hPa | 0 mm | - | - | - |
| 1777246834 | 14.44° C | 60% | 1016 hPa | 0 mm | - | - | - |
| 1777245934 | 14.44° C | 59% | 1016 hPa | 0 mm | - | - | - |
| 1777245034 | 15° C | 58% | 1017 hPa | 0 mm | - | - | - |
| 1777244133 | 15.56° C | 56% | 1016 hPa | 0 mm | - | - | - |
* Rain latest hour (hover to see other rain measurements)
** Current wind speed in m/s (hover to see current wind gust speed)